createdAt,value
2022-10-30T00:00:15.868Z,2
2022-10-30T00:05:15.926Z,3
2022-10-30T00:10:15.948Z,3
2022-10-30T00:15:16.140Z,2
2022-10-30T00:20:15.944Z,4
2022-10-30T00:25:15.888Z,4
2022-10-30T00:30:15.990Z,3
2022-10-30T00:35:15.932Z,4
2022-10-30T00:40:15.937Z,3
2022-10-30T00:45:15.940Z,4
2022-10-30T00:50:16.066Z,3
2022-10-30T00:55:15.948Z,4
2022-10-30T01:00:16.049Z,3
2022-10-30T01:05:16.127Z,2
2022-10-30T01:10:16.316Z,2
2022-10-30T01:15:16.045Z,3
2022-10-30T01:20:16.036Z,3
2022-10-30T01:25:16.028Z,3
2022-10-30T01:30:16.341Z,2
2022-10-30T01:35:16.035Z,3
2022-10-30T01:40:16.375Z,2
2022-10-30T01:45:16.182Z,2
2022-10-30T01:50:16.153Z,3
2022-10-30T01:55:16.096Z,2
2022-10-30T02:00:16.147Z,2
2022-10-30T02:05:16.164Z,2
2022-10-30T02:10:16.270Z,3
2022-10-30T02:15:16.219Z,2
2022-10-30T02:20:16.126Z,2
2022-10-30T02:25:16.211Z,3
2022-10-30T02:30:16.217Z,4
2022-10-30T02:35:16.175Z,4
2022-10-30T02:40:16.561Z,4
2022-10-30T02:45:16.191Z,3
2022-10-30T02:50:16.517Z,4
2022-10-30T02:55:16.193Z,4
2022-10-30T03:00:16.228Z,2
2022-10-30T03:05:16.214Z,2
2022-10-30T03:10:16.309Z,3
2022-10-30T03:15:16.398Z,3
2022-10-30T03:20:16.272Z,2
2022-10-30T03:25:16.353Z,2
2022-10-30T03:30:16.286Z,3
2022-10-30T03:35:16.341Z,2
2022-10-30T03:40:16.387Z,2
2022-10-30T03:45:16.453Z,3
2022-10-30T03:50:16.359Z,2
2022-10-30T03:55:16.282Z,3
2022-10-30T04:00:15.507Z,3
2022-10-30T04:05:15.424Z,2
2022-10-30T04:10:20.873Z,3
2022-10-30T04:15:15.459Z,3
2022-10-30T04:20:15.396Z,2
2022-10-30T04:25:15.478Z,3
2022-10-30T04:30:15.469Z,3
2022-10-30T04:35:15.495Z,3
2022-10-30T04:40:15.635Z,3
2022-10-30T04:45:15.636Z,3
2022-10-30T04:50:15.478Z,3
2022-10-30T04:55:15.486Z,3
2022-10-30T05:00:15.482Z,3
2022-10-30T05:05:15.608Z,3
2022-10-30T05:10:15.527Z,3
2022-10-30T05:15:15.549Z,4
2022-10-30T05:20:18.781Z,2
2022-10-30T05:25:15.812Z,3
2022-10-30T05:30:15.607Z,3
2022-10-30T05:35:15.619Z,1
2022-10-30T05:40:15.553Z,1
2022-10-30T05:45:15.643Z,1
2022-10-30T05:50:15.720Z,0
2022-10-30T05:55:15.519Z,1
2022-10-30T06:00:15.789Z,2
2022-10-30T06:05:15.749Z,1
2022-10-30T06:10:15.791Z,0
2022-10-30T06:15:15.677Z,2
2022-10-30T06:20:15.655Z,3
2022-10-30T06:25:15.739Z,1
2022-10-30T06:30:15.644Z,2
2022-10-30T06:35:15.643Z,1
2022-10-30T06:40:15.803Z,1
2022-10-30T06:45:15.730Z,2
2022-10-30T06:50:15.726Z,2
2022-10-30T06:55:15.943Z,2
2022-10-30T07:00:15.840Z,2
2022-10-30T07:05:15.691Z,3
2022-10-30T07:10:15.787Z,3
2022-10-30T07:15:15.715Z,2
2022-10-30T07:20:15.898Z,4
2022-10-30T07:25:15.792Z,4
2022-10-30T07:30:15.929Z,3
2022-10-30T07:35:15.909Z,3
2022-10-30T07:40:15.868Z,5
2022-10-30T07:45:15.906Z,4
2022-10-30T07:50:15.882Z,4
2022-10-30T07:55:15.793Z,4
2022-10-30T08:00:15.872Z,5
2022-10-30T08:05:15.926Z,4
2022-10-30T08:10:16.235Z,3
2022-10-30T08:15:15.910Z,1
2022-10-30T08:20:15.957Z,1
2022-10-30T08:25:15.896Z,0
2022-10-30T08:30:15.932Z,1
2022-10-30T08:35:19.786Z,2
2022-10-30T08:40:15.975Z,2
2022-10-30T08:45:16.001Z,2
2022-10-30T08:50:15.983Z,2
2022-10-30T08:55:16.009Z,2
2022-10-30T09:00:16.114Z,2
2022-10-30T09:05:16.020Z,2
2022-10-30T09:10:16.097Z,2
2022-10-30T09:15:16.053Z,3
2022-10-30T09:20:16.060Z,3
2022-10-30T09:25:16.184Z,2
2022-10-30T09:30:16.077Z,1
2022-10-30T09:35:16.050Z,2
2022-10-30T09:40:16.203Z,2
2022-10-30T09:45:28.749Z,1
2022-10-30T09:50:17.184Z,2
2022-10-30T09:55:16.099Z,3
2022-10-30T10:00:16.162Z,2
2022-10-30T10:05:16.168Z,2
2022-10-30T10:10:16.199Z,4
2022-10-30T10:15:16.209Z,4
2022-10-30T10:20:16.150Z,2
2022-10-30T10:25:16.552Z,4
2022-10-30T10:30:16.275Z,4
2022-10-30T10:35:16.203Z,3
2022-10-30T10:40:16.467Z,3
2022-10-30T10:45:16.185Z,3
2022-10-30T10:50:16.215Z,4
2022-10-30T10:55:16.319Z,4
2022-10-30T11:00:16.652Z,2
2022-10-30T11:05:16.381Z,2
2022-10-30T11:10:16.266Z,2
2022-10-30T11:15:16.325Z,4
2022-10-30T11:20:16.285Z,5
2022-10-30T11:25:16.615Z,4
2022-10-30T11:30:16.418Z,4
2022-10-30T11:35:16.474Z,4
2022-10-30T11:40:16.413Z,3
2022-10-30T11:45:16.455Z,2
2022-10-30T11:50:16.423Z,3
2022-10-30T11:55:16.309Z,3
2022-10-30T12:00:16.552Z,2
2022-10-30T12:05:16.456Z,2
2022-10-30T12:10:16.545Z,2
2022-10-30T12:15:16.435Z,1
2022-10-30T12:20:16.459Z,1
2022-10-30T12:25:16.406Z,2
2022-10-30T12:30:16.692Z,3
2022-10-30T12:35:16.494Z,3
2022-10-30T12:40:16.544Z,2
2022-10-30T12:45:16.528Z,2
2022-10-30T12:50:16.722Z,1
2022-10-30T12:55:16.507Z,1
2022-10-30T13:00:16.601Z,2
2022-10-30T13:05:16.663Z,0
2022-10-30T13:10:16.611Z,1
2022-10-30T13:15:16.619Z,2
2022-10-30T13:20:16.583Z,2
2022-10-30T13:25:16.597Z,1
2022-10-30T13:30:16.661Z,2
2022-10-30T13:35:16.713Z,2
2022-10-30T13:40:16.625Z,4
2022-10-30T13:45:16.731Z,4
2022-10-30T13:50:16.759Z,3
2022-10-30T13:55:16.506Z,3
2022-10-30T14:00:16.602Z,2
2022-10-30T14:05:16.679Z,3
2022-10-30T14:10:16.606Z,2
2022-10-30T14:15:16.680Z,2
2022-10-30T14:20:16.913Z,2
2022-10-30T14:25:16.687Z,2
2022-10-30T14:30:16.761Z,1
2022-10-30T14:35:16.752Z,0
2022-10-30T14:40:16.917Z,0
2022-10-30T14:45:16.733Z,4
2022-10-30T14:50:16.781Z,5
2022-10-30T14:55:16.804Z,5
2022-10-30T15:00:17.169Z,5
2022-10-30T15:05:16.827Z,6
2022-10-30T15:10:16.733Z,7
2022-10-30T15:15:16.987Z,7
2022-10-30T15:20:16.843Z,4
2022-10-30T15:25:16.913Z,6
2022-10-30T15:30:16.894Z,6
2022-10-30T15:35:16.898Z,5
2022-10-30T15:40:16.882Z,3
2022-10-30T15:45:16.934Z,4
2022-10-30T15:50:16.805Z,3
2022-10-30T15:55:17.010Z,0
2022-10-30T16:00:24.775Z,2
2022-10-30T16:05:16.889Z,6
2022-10-30T16:10:17.041Z,9
2022-10-30T16:15:16.942Z,8
2022-10-30T16:20:17.054Z,7
2022-10-30T16:25:16.951Z,6
2022-10-30T16:30:17.011Z,7
2022-10-30T16:35:17.020Z,7
2022-10-30T16:40:16.954Z,7
2022-10-30T16:45:17.055Z,7
2022-10-30T16:50:16.999Z,6
2022-10-30T16:55:17.090Z,3
2022-10-30T17:00:17.173Z,1
2022-10-30T17:05:17.148Z,0
2022-10-30T17:10:17.191Z,2
2022-10-30T17:15:17.067Z,1
2022-10-30T17:20:17.058Z,0
2022-10-30T17:25:17.116Z,1
2022-10-30T17:30:17.110Z,1
2022-10-30T17:35:17.042Z,5
2022-10-30T17:40:17.273Z,6
2022-10-30T17:45:17.137Z,7
2022-10-30T17:50:17.173Z,9
2022-10-30T17:55:17.040Z,9
2022-10-30T18:00:17.144Z,8
2022-10-30T18:05:17.115Z,7
2022-10-30T18:10:17.249Z,8
2022-10-30T18:15:17.159Z,8
2022-10-30T18:20:17.235Z,8
2022-10-30T18:25:17.152Z,8
2022-10-30T18:30:17.462Z,9
2022-10-30T18:35:17.252Z,9
2022-10-30T18:40:21.711Z,10
2022-10-30T18:45:17.237Z,9
2022-10-30T18:50:17.232Z,9
2022-10-30T18:55:17.284Z,9
2022-10-30T19:00:17.288Z,11
2022-10-30T19:05:17.308Z,12
2022-10-30T19:10:17.365Z,13
2022-10-30T19:15:17.447Z,13
2022-10-30T19:20:17.228Z,12
2022-10-30T19:25:17.701Z,11
2022-10-30T19:30:17.419Z,11
2022-10-30T19:35:17.387Z,11
2022-10-30T19:40:17.343Z,11
2022-10-30T19:45:17.449Z,10
2022-10-30T19:50:17.380Z,11
2022-10-30T19:55:17.269Z,13
2022-10-30T20:00:15.361Z,11
2022-10-30T20:05:15.763Z,15
2022-10-30T20:10:15.456Z,16
2022-10-30T20:15:15.390Z,11
2022-10-30T20:20:15.507Z,11
2022-10-30T20:25:15.500Z,12
2022-10-30T20:30:15.499Z,12
2022-10-30T20:35:15.412Z,12
2022-10-30T20:40:15.494Z,12
2022-10-30T20:45:15.515Z,12
2022-10-30T20:50:15.599Z,13
2022-10-30T20:55:15.725Z,10
2022-10-30T21:00:15.621Z,8
2022-10-30T21:05:38.053Z,7
2022-10-30T21:10:15.503Z,7
2022-10-30T21:15:15.513Z,7
2022-10-30T21:20:15.576Z,8
2022-10-30T21:25:15.519Z,8
2022-10-30T21:30:15.608Z,6
2022-10-30T21:35:15.590Z,6
2022-10-30T21:40:15.530Z,7
2022-10-30T21:45:15.564Z,6
2022-10-30T21:50:15.687Z,6
2022-10-30T21:55:15.700Z,5
2022-10-30T22:00:15.703Z,6
2022-10-30T22:05:15.601Z,6
2022-10-30T22:10:15.754Z,9
2022-10-30T22:15:15.692Z,8
2022-10-30T22:20:15.782Z,9
2022-10-30T22:25:15.720Z,10
2022-10-30T22:30:15.792Z,7
2022-10-30T22:35:15.877Z,9
2022-10-30T22:40:15.755Z,7
2022-10-30T22:45:15.730Z,6
2022-10-30T22:50:15.801Z,7
2022-10-30T22:55:15.817Z,7
2022-10-30T23:00:18.329Z,9
2022-10-30T23:05:15.890Z,9
2022-10-30T23:10:15.759Z,10
2022-10-30T23:15:15.782Z,9
2022-10-30T23:20:15.917Z,8
2022-10-30T23:25:15.857Z,9
2022-10-30T23:30:15.892Z,9
2022-10-30T23:35:16.180Z,9
2022-10-30T23:40:15.877Z,7
2022-10-30T23:45:15.847Z,8
2022-10-30T23:50:15.909Z,7
2022-10-30T23:55:19.015Z,7
